Time;durP1;ratioP1;P1;durP2;ratioP2;P2;SDS_P1;SDS_P2;PMS_P1;PMS_P2;Temp;Humidity;BMP_temperature;BMP_pressure;BME280_temperature;BME280_humidity;BME280_pressure;Samples;Min_cycle;Max_cycle;Signal;HPM_P1;HPM_P2
2021/03/16 00:05:00;;;;;;;2.63;0.63;;;;;;;2.65;100.00;92992.81;10485918;28;20377;-73
2021/03/16 00:10:00;;;;;;;0.80;0.50;;;;;;;2.59;100.00;92993.88;10486746;28;20465;-74
2021/03/16 00:15:01;;;;;;;0.75;0.63;;;;;;;2.58;100.00;93000.22;10486846;28;20036;-74
2021/03/16 00:20:03;;;;;;;0.52;0.52;;;;;;;2.20;100.00;92995.19;10487489;28;20030;-74
2021/03/16 00:25:04;;;;;;;1.25;0.70;;;;;;;2.37;100.00;92996.78;10485272;28;20382;-74
2021/03/16 00:30:06;;;;;;;0.60;0.50;;;;;;;2.32;100.00;93002.88;10487012;28;20038;-74
2021/03/16 00:35:07;;;;;;;1.17;0.50;;;;;;;2.08;100.00;92993.84;10486819;28;20097;-74
2021/03/16 00:40:08;;;;;;;1.80;0.90;;;;;;;2.01;100.00;92988.78;10486020;28;20032;-74
2021/03/16 00:45:09;;;;;;;0.63;0.40;;;;;;;2.12;100.00;92986.97;10489221;28;20047;-74
2021/03/16 00:50:11;;;;;;;0.80;0.70;;;;;;;2.11;100.00;92986.19;10487200;28;20115;-73
2021/03/16 00:55:12;;;;;;;0.95;0.60;;;;;;;2.07;100.00;92985.13;10486425;28;20574;-74
2021/03/16 01:00:13;;;;;;;0.75;0.60;;;;;;;2.09;100.00;92985.63;10486370;28;20226;-74
2021/03/16 01:05:13;;;;;;;0.85;0.75;;;;;;;1.98;100.00;92982.19;10486100;28;20029;-74
2021/03/16 01:10:16;;;;;;;0.90;0.85;;;;;;;2.07;100.00;92976.38;10484695;28;20111;-74
2021/03/16 01:15:16;;;;;;;0.80;0.70;;;;;;;1.98;100.00;92989.31;10485406;28;20039;-74
2021/03/16 01:20:20;;;;;;;1.40;0.70;;;;;;;1.82;100.00;92981.34;10485409;28;20029;-73
2021/03/16 01:25:22;;;;;;;1.88;1.00;;;;;;;1.60;100.00;92973.63;10485470;28;20032;-73
2021/03/16 01:30:24;;;;;;;1.15;0.95;;;;;;;1.27;100.00;92961.59;10484482;28;20036;-73
2021/03/16 01:35:24;;;;;;;0.60;0.60;;;;;;;1.27;100.00;92980.13;10485541;28;20031;-73
2021/03/16 01:40:39;;;;;;;0.73;0.73;;;;;;;1.15;100.00;92961.84;10486175;28;20724;-73
2021/03/16 01:45:41;;;;;;;0.70;0.50;;;;;;;1.14;100.00;92968.16;10484860;28;20486;-73
2021/03/16 01:50:42;;;;;;;0.85;0.80;;;;;;;1.28;100.00;92966.63;10484370;28;20055;-74
2021/03/16 01:55:43;;;;;;;1.02;0.73;;;;;;;1.59;100.00;92965.94;10485508;28;20169;-74
2021/03/16 02:00:44;;;;;;;3.22;0.90;;;;;;;1.62;100.00;92965.41;10484483;28;20033;-74
2021/03/16 02:05:45;;;;;;;0.30;0.30;;;;;;;1.41;100.00;92967.22;10485743;28;20452;-73
2021/03/16 02:11:01;;;;;;;1.02;0.75;;;;;;;1.23;100.00;92956.03;10485162;28;20044;-73
2021/03/16 02:16:09;;;;;;;1.45;0.70;;;;;;;1.43;100.00;92952.66;10484160;28;20033;-74
2021/03/16 02:21:14;;;;;;;1.20;0.70;;;;;;;1.54;100.00;92962.22;10489664;28;20106;-74
2021/03/16 02:26:27;;;;;;;1.02;0.90;;;;;;;1.63;100.00;92954.59;10492923;28;20275;-74
2021/03/16 02:31:28;;;;;;;1.15;0.60;;;;;;;1.73;100.00;92951.16;10490748;28;20037;-73
2021/03/16 02:36:31;;;;;;;0.50;0.47;;;;;;;1.77;100.00;92954.84;10491493;28;20025;-73
2021/03/16 02:41:33;;;;;;;0.60;0.50;;;;;;;1.58;100.00;92962.50;10490314;28;20046;-73
2021/03/16 02:46:34;;;;;;;0.80;0.80;;;;;;;1.64;100.00;92963.31;10490651;28;20024;-73
2021/03/16 02:51:37;;;;;;;1.25;0.88;;;;;;;1.51;100.00;92949.50;10490185;28;20057;-74
2021/03/16 02:56:39;;;;;;;0.57;0.57;;;;;;;1.35;100.00;92953.16;10490383;28;20075;-73
2021/03/16 03:01:40;;;;;;;0.98;0.73;;;;;;;1.32;100.00;92940.47;10491636;28;20032;-73
2021/03/16 03:06:42;;;;;;;0.57;0.57;;;;;;;1.44;100.00;92948.97;10491092;28;20035;-73
2021/03/16 03:11:43;;;;;;;1.25;0.40;;;;;;;1.64;100.00;92960.66;10489404;28;20028;-74
2021/03/16 03:16:43;;;;;;;1.27;0.55;;;;;;;1.92;100.00;92961.25;10489467;28;20028;-74
2021/03/16 03:22:17;;;;;;;0.60;0.60;;;;;;;1.92;100.00;92950.66;10490836;28;20032;-73
2021/03/16 03:27:22;;;;;;;1.27;0.50;;;;;;;2.04;100.00;92969.75;10489915;28;20282;-74
2021/03/16 03:32:27;;;;;;;0.70;0.57;;;;;;;2.17;100.00;92963.13;10488237;28;20028;-75
2021/03/16 03:37:30;;;;;;;0.77;0.70;;;;;;;2.29;100.00;92958.38;10488993;28;20025;-75
2021/03/16 03:42:32;;;;;;;0.52;0.47;;;;;;;2.06;100.00;92975.56;10489418;28;20448;-74
2021/03/16 03:47:34;;;;;;;0.45;0.40;;;;;;;1.94;100.00;92975.84;10489948;28;20064;-74
2021/03/16 03:52:35;;;;;;;0.50;0.50;;;;;;;1.75;100.00;92980.81;10488545;28;20162;-74
2021/03/16 03:57:38;;;;;;;0.75;0.65;;;;;;;1.42;100.00;92966.16;10489246;28;20068;-74
2021/03/16 04:02:41;;;;;;;0.30;0.30;;;;;;;1.37;100.00;92977.53;10488955;28;20051;-75
2021/03/16 04:07:42;;;;;;;1.08;0.50;;;;;;;1.31;100.00;92991.78;10488120;28;20030;-75
2021/03/16 04:12:43;;;;;;;0.30;0.30;;;;;;;0.94;100.00;92998.75;10488131;28;20031;-74
2021/03/16 04:17:46;;;;;;;0.90;0.63;;;;;;;0.74;100.00;93001.28;10488210;28;20035;-75
2021/03/16 04:22:47;;;;;;;0.60;0.50;;;;;;;0.71;100.00;93005.22;10488189;28;20020;-74
2021/03/16 04:27:48;;;;;;;0.30;0.30;;;;;;;0.64;100.00;93020.50;10486556;28;20025;-75
2021/03/16 04:32:48;;;;;;;0.95;0.90;;;;;;;0.63;100.00;93016.28;10482915;28;20036;-75
2021/03/16 04:37:48;;;;;;;2.80;0.60;;;;;;;0.81;100.00;93020.34;10485460;28;20064;-75
2021/03/16 04:42:49;;;;;;;1.07;0.93;;;;;;;0.73;100.00;93010.28;10486622;28;20032;-75
2021/03/16 04:47:49;;;;;;;1.97;1.40;;;;;;;0.83;100.00;93018.28;10486515;28;20050;-76
2021/03/16 04:52:50;;;;;;;0.70;0.70;;;;;;;1.08;100.00;93007.03;10486204;28;20307;-75
2021/03/16 04:57:52;;;;;;;1.80;1.05;;;;;;;0.96;100.00;93011.72;10487019;28;20279;-75
2021/03/16 05:02:52;;;;;;;2.88;1.40;;;;;;;1.21;100.00;93024.28;10486098;28;20033;-75
2021/03/16 05:07:52;;;;;;;1.57;0.90;;;;;;;1.01;100.00;93031.06;10484568;28;20028;-76
2021/03/16 05:12:53;;;;;;;2.30;1.77;;;;;;;1.01;100.00;93035.56;10462393;28;20295;-75
2021/03/16 05:17:53;;;;;;;2.67;1.30;;;;;;;0.74;100.00;93035.66;10443680;28;20025;-75
2021/03/16 05:22:53;;;;;;;2.60;1.40;;;;;;;0.14;100.00;93048.91;10458981;28;20024;-75
2021/03/16 05:27:54;;;;;;;2.40;1.97;;;;;;;-0.14;100.00;93045.50;10466117;28;20066;-74
2021/03/16 05:32:58;;;;;;;2.17;1.40;;;;;;;-0.23;100.00;93049.59;10444424;28;20297;-70
2021/03/16 05:37:59;;;;;;;2.35;1.58;;;;;;;-0.29;100.00;93069.06;10442858;28;20426;-74
2021/03/16 05:43:00;;;;;;;3.72;1.50;;;;;;;-0.37;100.00;93084.28;10443820;28;20087;-74
2021/03/16 05:48:01;;;;;;;2.67;1.33;;;;;;;-0.42;100.00;93081.59;10442365;28;20775;-75
2021/03/16 05:53:03;;;;;;;1.83;1.45;;;;;;;-0.52;100.00;93079.66;10442976;28;20044;-76
2021/03/16 05:58:04;;;;;;;3.75;1.27;;;;;;;-0.53;100.00;93083.31;10451401;28;20402;-72
2021/03/16 06:03:05;;;;;;;1.48;1.35;;;;;;;-0.49;100.00;93090.75;10451165;28;20039;-71
2021/03/16 06:08:05;;;;;;;3.42;1.67;;;;;;;-0.32;100.00;93093.31;10450840;28;20104;-71
2021/03/16 06:13:13;;;;;;;1.55;1.45;;;;;;;-0.32;100.00;93098.59;10450033;28;20373;-72
2021/03/16 06:18:24;;;;;;;2.53;2.03;;;;;;;-0.29;100.00;93113.94;10449698;28;20472;-72
2021/03/16 06:23:32;;;;;;;5.18;1.83;;;;;;;-0.18;100.00;93111.19;10448426;28;20492;-72
2021/03/16 06:28:34;;;;;;;2.13;1.92;;;;;;;-0.08;100.00;93121.06;10449577;28;20040;-72
2021/03/16 06:33:34;;;;;;;4.55;2.88;;;;;;;-0.20;100.00;93123.81;10449329;28;20037;-72
2021/03/16 06:38:37;;;;;;;2.95;2.08;;;;;;;-0.29;100.00;93127.13;10449498;28;20025;-71
2021/03/16 06:43:40;;;;;;;3.85;2.80;;;;;;;-0.39;100.00;93122.53;10456680;28;20047;-71
2021/03/16 06:48:40;;;;;;;3.42;3.08;;;;;;;-0.30;100.00;93138.75;10489006;28;20032;-71
2021/03/16 06:53:41;;;;;;;3.47;2.65;;;;;;;-0.38;100.00;93148.69;10490146;28;20052;-71
2021/03/16 06:58:42;;;;;;;3.95;2.45;;;;;;;-0.28;100.00;93131.38;10488362;28;20021;-71
2021/03/16 07:03:45;;;;;;;3.17;2.30;;;;;;;-0.33;100.00;93147.97;10489727;28;20487;-72
2021/03/16 07:08:48;;;;;;;3.83;3.33;;;;;;;-0.30;100.00;93155.38;10488437;28;20093;-72
2021/03/16 07:13:50;;;;;;;3.35;2.92;;;;;;;-0.25;100.00;93152.81;10489689;28;20040;-71
2021/03/16 07:18:51;;;;;;;3.92;3.50;;;;;;;-0.31;100.00;93153.78;10489492;28;20028;-71
2021/03/16 07:23:52;;;;;;;6.20;3.80;;;;;;;-0.34;100.00;93156.91;10489386;28;20028;-71
2021/03/16 07:28:52;;;;;;;6.28;4.80;;;;;;;-0.28;100.00;93160.41;10488879;28;20101;-71
2021/03/16 07:33:53;;;;;;;6.77;4.40;;;;;;;-0.10;100.00;93154.81;10489578;28;20074;-70
2021/03/16 07:38:55;;;;;;;6.85;4.90;;;;;;;-0.13;100.00;93171.16;10488995;28;20282;-71
2021/03/16 07:44:01;;;;;;;8.38;4.55;;;;;;;-0.10;100.00;93165.38;10488916;28;20051;-70
2021/03/16 07:49:02;;;;;;;7.50;4.90;;;;;;;-0.10;100.00;93175.16;10488354;28;20032;-71
2021/03/16 07:54:06;;;;;;;7.32;6.05;;;;;;;0.02;100.00;93183.75;10488479;28;20044;-71
2021/03/16 07:59:08;;;;;;;8.43;6.63;;;;;;;-0.03;100.00;93189.78;10488870;28;20028;-71
2021/03/16 08:04:10;;;;;;;9.80;6.15;;;;;;;0.01;100.00;93192.72;10487954;28;20511;-71
2021/03/16 08:09:22;;;;;;;10.38;6.75;;;;;;;-0.21;100.00;93182.97;10487718;28;20423;-71
2021/03/16 08:14:28;;;;;;;13.18;7.20;;;;;;;-0.32;100.00;93207.63;10487782;28;20400;-71
2021/03/16 08:19:40;;;;;;;12.43;7.38;;;;;;;0.03;100.00;93206.50;10486773;28;20032;-71
2021/03/16 08:24:41;;;;;;;14.30;8.18;;;;;;;-0.08;100.00;93210.06;10488700;28;20035;-71
2021/03/16 08:29:47;;;;;;;9.15;6.35;;;;;;;-0.26;100.00;93206.66;10486282;28;20038;-72
2021/03/16 08:34:49;;;;;;;13.30;8.18;;;;;;;-0.26;100.00;93195.31;10485823;28;20026;-72
2021/03/16 08:39:51;;;;;;;9.23;6.82;;;;;;;-0.12;100.00;93206.31;10486947;28;20486;-72
2021/03/16 08:44:52;;;;;;;10.93;6.47;;;;;;;-0.01;100.00;93210.66;10484687;28;20020;-72
2021/03/16 08:49:55;;;;;;;11.40;7.50;;;;;;;-0.10;100.00;93201.56;10486173;28;20083;-72
2021/03/16 08:54:59;;;;;;;13.88;7.90;;;;;;;-0.19;100.00;93196.69;10486437;28;20036;-72
2021/03/16 09:00:01;;;;;;;9.05;6.15;;;;;;;-0.21;100.00;93205.91;10468698;28;20103;-72
2021/03/16 09:05:03;;;;;;;12.75;7.80;;;;;;;-0.26;100.00;93221.69;10444952;28;20031;-72
2021/03/16 09:10:08;;;;;;;8.52;6.47;;;;;;;-0.28;100.00;93202.66;10444445;28;20107;-72
2021/03/16 09:15:14;;;;;;;15.98;7.70;;;;;;;-0.35;100.00;93223.94;10444726;28;20032;-72
2021/03/16 09:20:21;;;;;;;8.70;6.07;;;;;;;-0.20;100.00;93223.34;10443383;28;20392;-72
2021/03/16 09:25:29;;;;;;;15.23;8.25;;;;;;;-0.19;100.00;93233.66;10482856;28;20810;-72
2021/03/16 09:30:34;;;;;;;13.32;8.23;;;;;;;-0.10;100.00;93223.47;10484706;28;20036;-71
2021/03/16 09:35:34;;;;;;;11.85;7.32;;;;;;;-0.07;100.00;93212.44;10485089;28;20028;-71
2021/03/16 09:40:43;;;;;;;12.60;7.38;;;;;;;-0.02;100.00;93227.56;10482771;28;20024;-72
2021/03/16 09:45:57;;;;;;;14.32;8.15;;;;;;;0.18;100.00;93229.63;10483259;28;20518;-71
2021/03/16 09:50:59;;;;;;;10.85;6.70;;;;;;;0.62;100.00;93242.03;10484046;28;20049;-72
2021/03/16 09:56:01;;;;;;;12.57;7.22;;;;;;;0.60;100.00;93230.91;10484807;28;20045;-71
2021/03/16 10:01:03;;;;;;;11.65;6.13;;;;;;;0.48;100.00;93241.63;10447368;28;20438;-71
2021/03/16 10:06:06;;;;;;;13.13;7.55;;;;;;;0.67;100.00;93257.94;10442640;28;20017;-72
2021/03/16 10:11:06;;;;;;;9.27;6.90;;;;;;;0.57;100.00;93257.84;10443351;28;20437;-72
2021/03/16 10:16:13;;;;;;;11.13;7.33;;;;;;;0.29;100.00;93267.56;10470455;28;20132;-72
2021/03/16 10:21:13;;;;;;;19.95;8.98;;;;;;;0.53;100.00;93288.47;10486004;28;20270;-72
2021/03/16 10:26:14;;;;;;;11.90;6.93;;;;;;;0.40;100.00;93273.78;10484130;28;20395;-72
2021/03/16 10:31:22;;;;;;;14.57;7.80;;;;;;;0.29;100.00;93271.03;10482125;28;20495;-73
2021/03/16 10:36:23;;;;;;;;;;;;;;;0.13;100.00;93264.72;10483315;28;20028;-71
2021/03/16 10:41:23;;;;;;;10.90;6.07;;;;;;;0.01;100.00;93269.31;10486446;28;19909;-71
2021/03/16 10:46:23;;;;;;;16.07;8.00;;;;;;;0.02;100.00;93272.78;10491686;28;20050;-72
2021/03/16 10:51:24;;;;;;;12.32;7.85;;;;;;;0.01;100.00;93287.81;10489832;28;20123;-72
2021/03/16 10:56:24;;;;;;;14.57;8.00;;;;;;;0.23;100.00;93279.91;10490209;28;20064;-71
2021/03/16 11:01:24;;;;;;;12.50;7.77;;;;;;;0.09;100.00;93289.25;10488110;28;20279;-71
2021/03/16 11:06:25;;;;;;;10.03;7.30;;;;;;;-0.23;100.00;93289.84;10490733;28;20262;-71
2021/03/16 11:11:25;;;;;;;15.77;8.18;;;;;;;-0.40;100.00;93287.22;10489985;28;20028;-71
2021/03/16 11:16:26;;;;;;;13.37;9.63;;;;;;;-0.46;100.00;93293.44;10488804;28;20039;-71
2021/03/16 11:21:27;;;;;;;16.03;8.00;;;;;;;-0.57;100.00;93297.78;10488849;28;20043;-71
2021/03/16 11:26:27;;;;;;;12.80;8.88;;;;;;;-0.62;100.00;93293.22;10489940;28;20135;-72
2021/03/16 11:31:28;;;;;;;14.43;9.52;;;;;;;-0.56;100.00;93300.19;10489355;28;20024;-72
2021/03/16 11:36:28;;;;;;;14.63;9.63;;;;;;;-0.64;100.00;93292.66;10489574;28;20031;-71
2021/03/16 11:41:29;;;;;;;9.30;8.17;;;;;;;-0.62;100.00;93285.28;10489865;28;20164;-72
2021/03/16 11:46:29;;;;;;;17.20;8.43;;;;;;;-0.57;100.00;93298.56;10488528;28;20328;-71
2021/03/16 11:51:29;;;;;;;16.27;9.43;;;;;;;-0.61;100.00;93297.44;10488144;28;20121;-71
2021/03/16 11:56:30;;;;;;;13.45;7.30;;;;;;;-0.58;100.00;93291.69;10488473;28;20287;-72
2021/03/16 12:01:30;;;;;;;15.97;9.83;;;;;;;-0.53;100.00;93283.88;10488724;28;20017;-72
2021/03/16 12:06:31;;;;;;;16.25;9.20;;;;;;;-0.63;100.00;93296.88;10488239;28;20267;-72
2021/03/16 12:11:31;;;;;;;19.00;9.80;;;;;;;-0.52;100.00;93298.66;10487309;28;20017;-72
2021/03/16 12:16:31;;;;;;;13.17;8.00;;;;;;;-0.52;100.00;93290.75;10487856;28;20039;-72
2021/03/16 12:21:32;;;;;;;13.95;8.13;;;;;;;-0.47;100.00;93302.44;10487628;28;20029;-72
2021/03/16 12:26:32;;;;;;;11.45;8.23;;;;;;;-0.61;100.00;93302.72;10487321;28;20017;-72
2021/03/16 12:31:33;;;;;;;13.48;9.07;;;;;;;-0.62;100.00;93295.84;10487300;28;20036;-72
2021/03/16 12:36:33;;;;;;;11.20;7.55;;;;;;;-0.59;100.00;93318.31;10486582;28;20028;-72
2021/03/16 12:41:34;;;;;;;11.48;7.35;;;;;;;-0.50;100.00;93318.72;10486081;28;20036;-72
2021/03/16 12:46:35;;;;;;;16.20;7.80;;;;;;;-0.39;100.00;93313.38;10486588;28;20035;-73
2021/03/16 12:51:35;;;;;;;14.40;9.23;;;;;;;-0.33;100.00;93313.47;10485524;28;20052;-72
2021/03/16 12:56:35;;;;;;;26.40;7.87;;;;;;;-0.27;100.00;93305.34;10486682;28;20080;-72
2021/03/16 13:01:36;;;;;;;12.20;8.10;;;;;;;-0.20;100.00;93310.47;10486127;28;20020;-72
2021/03/16 13:06:36;;;;;;;15.80;10.37;;;;;;;0.05;100.00;93303.97;10486209;28;20036;-72
2021/03/16 13:11:37;;;;;;;12.30;8.93;;;;;;;0.27;100.00;93309.28;10484502;28;20267;-72
2021/03/16 13:16:38;;;;;;;10.00;7.70;;;;;;;0.18;100.00;93319.47;10483464;28;20127;-72
2021/03/16 13:21:39;;;;;;;14.20;8.15;;;;;;;0.26;100.00;93313.75;10484696;28;20032;-72
2021/03/16 13:26:39;;;;;;;12.70;7.72;;;;;;;0.34;100.00;93320.47;10483394;28;20394;-72
2021/03/16 13:31:40;;;;;;;9.88;7.22;;;;;;;0.33;100.00;93311.75;10483280;28;20085;-72
2021/03/16 13:36:40;;;;;;;9.20;6.65;;;;;;;0.39;100.00;93320.56;10483401;28;20029;-72
2021/03/16 13:41:41;;;;;;;9.80;6.83;;;;;;;0.54;100.00;93319.13;10483034;28;20114;-72
2021/03/16 13:46:41;;;;;;;6.70;5.47;;;;;;;0.64;100.00;93322.72;10483265;28;20055;-72
2021/03/16 13:51:41;;;;;;;7.77;4.90;;;;;;;0.76;100.00;93319.94;10483269;28;20298;-72
2021/03/16 13:56:42;;;;;;;9.63;5.97;;;;;;;0.76;100.00;93317.28;10482681;28;20111;-72
2021/03/16 14:01:42;;;;;;;9.10;5.17;;;;;;;0.92;100.00;93318.28;10482990;28;20819;-72
2021/03/16 14:06:43;;;;;;;7.68;4.88;;;;;;;1.02;100.00;93334.25;10483015;28;20099;-72
2021/03/16 14:11:43;;;;;;;8.82;5.63;;;;;;;1.09;100.00;93331.41;10482844;28;20047;-72
2021/03/16 14:16:43;;;;;;;8.03;5.80;;;;;;;1.14;100.00;93349.97;10487939;28;20033;-72
2021/03/16 14:21:44;;;;;;;6.27;4.80;;;;;;;1.27;100.00;93338.22;10490450;28;20028;-72
2021/03/16 14:26:44;;;;;;;7.60;6.20;;;;;;;1.28;100.00;93341.66;10490372;28;20297;-72
2021/03/16 14:31:45;;;;;;;8.75;6.10;;;;;;;1.32;100.00;93351.47;10482661;28;20017;-72
2021/03/16 14:36:45;;;;;;;13.82;6.40;;;;;;;1.14;100.00;93354.47;10458712;28;20514;-73
2021/03/16 14:41:45;;;;;;;8.23;5.70;;;;;;;1.17;100.00;93361.91;10483391;28;20035;-72
2021/03/16 14:46:46;;;;;;;10.53;6.40;;;;;;;1.27;100.00;93364.69;10447506;28;20047;-72
2021/03/16 14:51:49;;;;;;;8.63;6.07;;;;;;;1.25;100.00;93364.09;10447759;28;20048;-72
2021/03/16 14:56:49;;;;;;;9.07;6.65;;;;;;;1.15;100.00;93356.06;10457224;28;20326;-72
2021/03/16 15:01:50;;;;;;;6.85;5.45;;;;;;;1.11;100.00;93363.69;10488275;28;20103;-73
2021/03/16 15:06:50;;;;;;;11.37;6.70;;;;;;;1.20;100.00;93369.38;10488246;28;20024;-72
2021/03/16 15:11:51;;;;;;;11.00;7.15;;;;;;;1.26;100.00;93368.38;10474805;28;20545;-72
2021/03/16 15:16:52;;;;;;;9.30;5.60;;;;;;;1.18;100.00;93374.88;10445615;28;20139;-71
2021/03/16 15:21:53;;;;;;;6.57;5.00;;;;;;;1.06;100.00;93363.66;10446382;28;20036;-71
2021/03/16 15:26:53;;;;;;;11.30;6.23;;;;;;;0.94;100.00;93374.34;10446379;28;20479;-71
2021/03/16 15:31:54;;;;;;;11.37;7.80;;;;;;;1.06;100.00;93378.72;10479524;28;20036;-72
2021/03/16 15:36:54;;;;;;;12.38;7.72;;;;;;;1.05;100.00;93388.50;10465116;28;20279;-73
2021/03/16 15:41:54;;;;;;;12.60;7.80;;;;;;;1.08;100.00;93384.56;10448786;28;20033;-73
2021/03/16 15:46:55;;;;;;;13.80;8.10;;;;;;;1.13;100.00;93392.56;10446380;28;20029;-73
2021/03/16 15:51:55;;;;;;;14.25;9.02;;;;;;;1.07;100.00;93388.25;10447013;28;20339;-73
2021/03/16 15:56:56;;;;;;;17.00;8.70;;;;;;;1.10;100.00;93393.84;10446902;28;20033;-73
2021/03/16 16:01:56;;;;;;;11.77;8.37;;;;;;;1.06;100.00;93387.47;10473365;28;20230;-73
2021/03/16 16:06:56;;;;;;;12.37;8.13;;;;;;;1.05;100.00;93401.75;10489025;28;20270;-72
2021/03/16 16:11:57;;;;;;;12.87;8.00;;;;;;;1.02;100.00;93394.31;10488360;28;20810;-72
2021/03/16 16:16:57;;;;;;;11.95;7.18;;;;;;;0.95;100.00;93401.59;10488509;28;20024;-72
2021/03/16 16:21:59;;;;;;;18.20;9.07;;;;;;;1.00;100.00;93397.16;10487970;28;20024;-71
2021/03/16 16:26:59;;;;;;;14.35;8.02;;;;;;;1.01;100.00;93390.84;10462100;28;20025;-72
2021/03/16 16:31:59;;;;;;;9.93;7.43;;;;;;;0.95;100.00;93406.88;10459011;28;20028;-72
2021/03/16 16:37:00;;;;;;;16.13;8.97;;;;;;;1.15;100.00;93415.06;10486593;28;20028;-72
2021/03/16 16:42:00;;;;;;;12.75;8.40;;;;;;;1.15;100.00;93406.34;10487298;28;20029;-74
2021/03/16 16:47:01;;;;;;;11.57;8.47;;;;;;;1.32;100.00;93412.34;10486426;28;20116;-73
2021/03/16 16:52:02;;;;;;;13.95;8.63;;;;;;;1.40;100.00;93421.72;10486312;28;20309;-73
2021/03/16 16:57:02;;;;;;;17.20;8.85;;;;;;;1.44;100.00;93420.16;10459097;28;20029;-73
2021/03/16 17:02:02;;;;;;;15.30;9.10;;;;;;;1.52;100.00;93419.72;10444926;28;20150;-73
2021/03/16 17:07:03;;;;;;;12.90;7.93;;;;;;;1.62;100.00;93411.09;10444630;28;20272;-72
2021/03/16 17:12:04;;;;;;;18.92;8.82;;;;;;;1.56;100.00;93430.59;10466849;28;20051;-72
2021/03/16 17:17:04;;;;;;;12.65;8.15;;;;;;;1.37;100.00;93427.50;10486238;28;20033;-72
2021/03/16 17:22:05;;;;;;;14.68;9.13;;;;;;;1.38;100.00;93439.66;10485120;28;20028;-72
2021/03/16 17:27:06;;;;;;;17.93;10.00;;;;;;;1.44;100.00;93444.00;10485501;28;20016;-73
2021/03/16 17:32:06;;;;;;;15.88;9.45;;;;;;;1.32;100.00;93440.69;10485740;28;20380;-73
2021/03/16 17:37:07;;;;;;;17.98;10.40;;;;;;;1.31;100.00;93436.41;10484996;28;20021;-72
2021/03/16 17:42:07;;;;;;;16.20;9.30;;;;;;;1.38;100.00;93429.09;10483261;28;20638;-72
2021/03/16 17:47:09;;;;;;;19.95;10.38;;;;;;;1.31;100.00;93431.13;10485543;28;20422;-72
2021/03/16 17:52:10;;;;;;;17.27;10.18;;;;;;;1.41;100.00;93425.16;10490511;28;20056;-72
2021/03/16 17:57:10;;;;;;;19.40;11.98;;;;;;;1.44;100.00;93446.63;10492757;28;20453;-73
2021/03/16 18:02:10;;;;;;;19.05;10.68;;;;;;;1.47;100.00;93448.78;10493712;28;20024;-73
2021/03/16 18:07:11;;;;;;;18.53;10.87;;;;;;;1.65;100.00;93441.56;10493383;28;20380;-73
2021/03/16 18:12:12;;;;;;;22.63;12.15;;;;;;;1.67;100.00;93442.09;10492498;28;20273;-73
2021/03/16 18:17:12;;;;;;;20.38;13.00;;;;;;;1.51;100.00;93449.09;10492330;28;20099;-73
2021/03/16 18:22:13;;;;;;;24.23;12.23;;;;;;;1.66;100.00;93441.31;10492671;28;20036;-76
2021/03/16 18:27:13;;;;;;;18.25;11.60;;;;;;;1.61;100.00;93451.84;10491731;28;20036;-76
2021/03/16 18:32:14;;;;;;;24.80;14.35;;;;;;;1.71;100.00;93454.59;10478839;28;20055;-72
2021/03/16 18:37:16;;;;;;;27.53;15.73;;;;;;;1.55;100.00;93460.78;10493118;28;20028;-72
2021/03/16 18:42:17;;;;;;;26.85;14.57;;;;;;;1.77;100.00;93452.78;10492596;28;20051;-72
2021/03/16 18:47:18;;;;;;;28.23;15.80;;;;;;;1.70;100.00;93447.72;10492644;28;20032;-72
2021/03/16 18:52:18;;;;;;;27.92;16.27;;;;;;;1.74;100.00;93455.16;10491283;28;20051;-72
2021/03/16 18:57:19;;;;;;;28.48;15.52;;;;;;;1.82;100.00;93462.66;10492643;28;20047;-74
2021/03/16 19:02:19;;;;;;;27.93;16.10;;;;;;;1.76;100.00;93453.88;10453159;28;20029;-76
2021/03/16 19:07:19;;;;;;;27.23;17.60;;;;;;;1.66;100.00;93472.28;10451422;28;20021;-75
2021/03/16 19:12:20;;;;;;;29.73;16.20;;;;;;;1.71;100.00;93467.03;10455741;28;20060;-76
2021/03/16 19:17:20;;;;;;;25.55;15.95;;;;;;;1.71;100.00;93477.63;10492761;28;20025;-76
2021/03/16 19:22:21;;;;;;;28.92;17.25;;;;;;;1.64;100.00;93461.94;10466439;28;20140;-76
2021/03/16 19:27:21;;;;;;;30.23;17.75;;;;;;;1.80;100.00;93476.16;10470481;28;20020;-75
2021/03/16 19:32:22;;;;;;;30.23;17.63;;;;;;;1.83;100.00;93477.50;10490014;28;20039;-75
2021/03/16 19:37:22;;;;;;;30.60;17.20;;;;;;;1.95;100.00;93475.47;10490561;28;20447;-75
2021/03/16 19:42:22;;;;;;;32.47;17.25;;;;;;;1.78;100.00;93480.88;10491372;28;20024;-74
2021/03/16 19:47:23;;;;;;;28.23;16.63;;;;;;;1.84;100.00;93494.97;10490512;28;20685;-76
2021/03/16 19:52:24;;;;;;;29.38;17.45;;;;;;;1.68;100.00;93473.63;10489725;28;20747;-75
2021/03/16 19:57:24;;;;;;;26.23;17.33;;;;;;;1.69;100.00;93503.59;10490958;28;20493;-76
2021/03/16 20:02:27;;;;;;;26.33;17.45;;;;;;;1.66;100.00;93488.16;10489287;28;20110;-76
2021/03/16 20:07:27;;;;;;;34.33;16.63;;;;;;;1.74;100.00;93516.88;10490390;28;20028;-76
2021/03/16 20:12:28;;;;;;;26.05;16.08;;;;;;;1.72;100.00;93511.03;10490239;28;20472;-76
2021/03/16 20:17:31;;;;;;;30.42;15.32;;;;;;;1.78;100.00;93510.03;10486641;28;20031;-76
2021/03/16 20:22:32;;;;;;;27.02;15.60;;;;;;;1.59;100.00;93493.69;10489070;28;20035;-75
2021/03/16 20:27:33;;;;;;;26.55;14.82;;;;;;;1.79;100.00;93505.53;10489693;28;20036;-74
2021/03/16 20:32:34;;;;;;;30.38;15.00;;;;;;;1.67;100.00;93495.84;10488723;28;20032;-74
2021/03/16 20:37:35;;;;;;;24.60;14.07;;;;;;;1.65;100.00;93502.47;10489371;28;20059;-75
2021/03/16 20:42:36;;;;;;;28.55;16.70;;;;;;;1.68;100.00;93504.63;10485264;28;20025;-75
2021/03/16 20:47:37;;;;;;;28.85;16.30;;;;;;;1.60;100.00;93489.97;10446910;28;20028;-75
2021/03/16 20:52:38;;;;;;;31.92;16.55;;;;;;;1.65;100.00;93486.59;10446852;28;20057;-74
2021/03/16 20:57:40;;;;;;;26.08;14.85;;;;;;;1.61;100.00;93486.28;10446802;28;20578;-74
2021/03/16 21:02:41;;;;;;;27.20;15.23;;;;;;;1.66;100.00;93491.63;10445870;28;20032;-74
2021/03/16 21:07:41;;;;;;;25.42;13.57;;;;;;;1.60;100.00;93507.72;10446366;28;20032;-74
2021/03/16 21:12:42;;;;;;;27.80;18.33;;;;;;;1.59;100.00;93495.50;10446205;28;20846;-74
2021/03/16 21:17:43;;;;;;;29.60;16.40;;;;;;;1.70;100.00;93503.34;10444874;28;20029;-74
2021/03/16 21:22:44;;;;;;;20.25;13.05;;;;;;;1.54;100.00;93494.41;10445529;28;20029;-75
2021/03/16 21:27:45;;;;;;;27.90;16.38;;;;;;;1.56;100.00;93504.75;10445621;28;20040;-75
2021/03/16 21:32:48;;;;;;;29.60;14.85;;;;;;;1.75;100.00;93509.75;10443921;28;20104;-75
2021/03/16 21:37:48;;;;;;;28.05;15.95;;;;;;;1.63;100.00;93491.31;10444657;28;20036;-77
2021/03/16 21:42:49;;;;;;;27.73;16.10;;;;;;;1.64;100.00;93496.38;10445118;28;20028;-76
2021/03/16 21:47:50;;;;;;;27.23;16.50;;;;;;;1.60;100.00;93486.53;10443807;28;20029;-75
2021/03/16 21:52:51;;;;;;;31.02;17.05;;;;;;;1.47;100.00;93490.34;10444088;28;20513;-74
2021/03/16 21:57:52;;;;;;;30.23;16.45;;;;;;;1.54;100.00;93483.81;10444587;28;20151;-75
2021/03/16 22:02:54;;;;;;;32.35;18.48;;;;;;;1.51;100.00;93489.59;10444638;28;20067;-75
2021/03/16 22:07:54;;;;;;;35.70;17.92;;;;;;;1.51;100.00;93479.00;10443278;28;20086;-75
2021/03/16 22:12:54;;;;;;;39.70;19.07;;;;;;;1.49;100.00;93493.53;10444447;28;20068;-75
2021/03/16 22:17:55;;;;;;;31.48;18.52;;;;;;;1.63;100.00;93483.38;10443988;28;20029;-76
2021/03/16 22:22:55;;;;;;;32.17;18.30;;;;;;;1.48;100.00;93491.94;10444842;28;20537;-76
2021/03/16 22:27:55;;;;;;;37.10;18.97;;;;;;;1.50;100.00;93490.66;10444717;28;20686;-76
2021/03/16 22:32:56;;;;;;;31.77;18.63;;;;;;;1.83;100.00;93486.25;10444100;28;20636;-77
2021/03/16 22:37:56;;;;;;;34.60;20.00;;;;;;;1.76;100.00;93484.81;10449745;28;20298;-76
2021/03/16 22:42:57;;;;;;;37.23;20.40;;;;;;;1.80;100.00;93481.44;10451460;28;20025;-76
2021/03/16 22:47:57;;;;;;;31.63;18.27;;;;;;;1.96;100.00;93490.34;10451190;28;20144;-76
2021/03/16 22:52:57;;;;;;;35.37;18.97;;;;;;;1.90;100.00;93474.63;10451078;28;20353;-76
2021/03/16 22:57:59;;;;;;;30.47;18.13;;;;;;;1.86;100.00;93487.59;10450740;28;20039;-76
2021/03/16 23:03:00;;;;;;;32.67;19.50;;;;;;;1.83;100.00;93490.75;10450791;28;20039;-77
2021/03/16 23:08:01;;;;;;;37.40;20.25;;;;;;;1.73;100.00;93488.81;10472374;28;20379;-76